sensor_id;sensor_type;location;lat;lon;timestamp;temperature;humidity
11934;DHT22;6026;48.784;9.198;2023-08-30T00:00:08;13.30;99.90
11934;DHT22;6026;48.784;9.198;2023-08-30T00:02:33;13.30;99.90
11934;DHT22;6026;48.784;9.198;2023-08-30T00:04:59;13.30;99.90
11934;DHT22;6026;48.784;9.198;2023-08-30T00:07:26;13.30;99.90
11934;DHT22;6026;48.784;9.198;2023-08-30T00:09:51;13.40;99.90
11934;DHT22;6026;48.784;9.198;2023-08-30T00:12:17;13.30;99.90
11934;DHT22;6026;48.784;9.198;2023-08-30T00:14:42;13.30;99.90
11934;DHT22;6026;48.784;9.198;2023-08-30T00:17:08;13.30;99.90
11934;DHT22;6026;48.784;9.198;2023-08-30T00:19:34;13.30;99.90
11934;DHT22;6026;48.784;9.198;2023-08-30T00:22:00;13.30;99.90
11934;DHT22;6026;48.784;9.198;2023-08-30T00:24:25;13.30;99.90
11934;DHT22;6026;48.784;9.198;2023-08-30T00:26:51;13.30;99.90
11934;DHT22;6026;48.784;9.198;2023-08-30T00:29:17;13.30;99.90
11934;DHT22;6026;48.784;9.198;2023-08-30T00:31:42;13.30;99.90
11934;DHT22;6026;48.784;9.198;2023-08-30T00:34:08;13.30;99.90
11934;DHT22;6026;48.784;9.198;2023-08-30T00:36:33;13.30;99.90
11934;DHT22;6026;48.784;9.198;2023-08-30T00:38:59;13.30;99.90
11934;DHT22;6026;48.784;9.198;2023-08-30T00:41:24;13.30;99.90
11934;DHT22;6026;48.784;9.198;2023-08-30T00:43:50;13.40;99.90
11934;DHT22;6026;48.784;9.198;2023-08-30T00:46:16;13.30;99.90
11934;DHT22;6026;48.784;9.198;2023-08-30T00:48:42;13.30;99.90
11934;DHT22;6026;48.784;9.198;2023-08-30T00:51:07;13.30;99.90
11934;DHT22;6026;48.784;9.198;2023-08-30T00:53:33;13.20;99.90
11934;DHT22;6026;48.784;9.198;2023-08-30T00:55:59;13.10;99.90
11934;DHT22;6026;48.784;9.198;2023-08-30T00:58:25;13.20;99.90
11934;DHT22;6026;48.784;9.198;2023-08-30T01:00:52;13.10;99.90
11934;DHT22;6026;48.784;9.198;2023-08-30T01:03:19;13.10;99.90
11934;DHT22;6026;48.784;9.198;2023-08-30T01:05:47;13.00;99.90
11934;DHT22;6026;48.784;9.198;2023-08-30T01:08:12;13.10;99.90
11934;DHT22;6026;48.784;9.198;2023-08-30T01:10:47;13.10;99.90
11934;DHT22;6026;48.784;9.198;2023-08-30T01:13:19;13.10;99.90
11934;DHT22;6026;48.784;9.198;2023-08-30T01:15:47;13.00;99.90
11934;DHT22;6026;48.784;9.198;2023-08-30T01:18:16;13.00;99.90
11934;DHT22;6026;48.784;9.198;2023-08-30T01:20:44;13.10;99.90
11934;DHT22;6026;48.784;9.198;2023-08-30T01:23:24;13.10;99.90
11934;DHT22;6026;48.784;9.198;2023-08-30T01:26:26;13.10;99.90
11934;DHT22;6026;48.784;9.198;2023-08-30T01:28:55;13.10;99.90
11934;DHT22;6026;48.784;9.198;2023-08-30T01:31:23;13.00;99.90
11934;DHT22;6026;48.784;9.198;2023-08-30T01:33:50;13.10;99.90
11934;DHT22;6026;48.784;9.198;2023-08-30T01:36:16;13.10;99.90
11934;DHT22;6026;48.784;9.198;2023-08-30T01:38:42;13.00;99.90
11934;DHT22;6026;48.784;9.198;2023-08-30T01:41:08;13.00;99.90
11934;DHT22;6026;48.784;9.198;2023-08-30T01:43:35;13.00;99.90
11934;DHT22;6026;48.784;9.198;2023-08-30T01:46:01;13.00;99.90
11934;DHT22;6026;48.784;9.198;2023-08-30T01:48:28;13.00;99.90
11934;DHT22;6026;48.784;9.198;2023-08-30T01:50:55;13.00;99.90
11934;DHT22;6026;48.784;9.198;2023-08-30T01:53:24;12.90;99.90
11934;DHT22;6026;48.784;9.198;2023-08-30T01:55:50;12.90;99.90
11934;DHT22;6026;48.784;9.198;2023-08-30T01:58:16;12.80;99.90
11934;DHT22;6026;48.784;9.198;2023-08-30T02:00:41;12.80;99.90
11934;DHT22;6026;48.784;9.198;2023-08-30T02:03:11;12.80;99.90
11934;DHT22;6026;48.784;9.198;2023-08-30T02:05:53;12.80;99.90
11934;DHT22;6026;48.784;9.198;2023-08-30T02:08:22;12.80;99.90
11934;DHT22;6026;48.784;9.198;2023-08-30T02:10:56;12.80;99.90
11934;DHT22;6026;48.784;9.198;2023-08-30T02:13:26;12.80;99.90
11934;DHT22;6026;48.784;9.198;2023-08-30T02:15:54;12.70;99.90
11934;DHT22;6026;48.784;9.198;2023-08-30T02:18:20;12.70;99.90
11934;DHT22;6026;48.784;9.198;2023-08-30T02:20:46;12.80;99.90
11934;DHT22;6026;48.784;9.198;2023-08-30T02:23:12;12.70;99.90
11934;DHT22;6026;48.784;9.198;2023-08-30T02:25:37;12.80;99.90
11934;DHT22;6026;48.784;9.198;2023-08-30T02:28:03;12.80;99.90
11934;DHT22;6026;48.784;9.198;2023-08-30T02:30:29;12.80;99.90
11934;DHT22;6026;48.784;9.198;2023-08-30T02:32:54;12.80;99.90
11934;DHT22;6026;48.784;9.198;2023-08-30T02:35:20;12.80;99.90
11934;DHT22;6026;48.784;9.198;2023-08-30T02:37:46;12.90;99.90
11934;DHT22;6026;48.784;9.198;2023-08-30T02:40:11;12.80;99.90
11934;DHT22;6026;48.784;9.198;2023-08-30T02:42:37;12.80;99.90
11934;DHT22;6026;48.784;9.198;2023-08-30T02:45:02;12.80;99.90
11934;DHT22;6026;48.784;9.198;2023-08-30T02:47:28;12.80;99.90
11934;DHT22;6026;48.784;9.198;2023-08-30T02:49:54;12.80;99.90
11934;DHT22;6026;48.784;9.198;2023-08-30T02:52:19;12.80;99.90
11934;DHT22;6026;48.784;9.198;2023-08-30T02:54:45;12.70;99.90
11934;DHT22;6026;48.784;9.198;2023-08-30T02:57:10;12.80;99.90
11934;DHT22;6026;48.784;9.198;2023-08-30T02:59:36;12.70;99.90
11934;DHT22;6026;48.784;9.198;2023-08-30T03:02:01;12.80;99.90
11934;DHT22;6026;48.784;9.198;2023-08-30T03:04:28;12.70;99.90
11934;DHT22;6026;48.784;9.198;2023-08-30T03:06:53;12.70;99.90
11934;DHT22;6026;48.784;9.198;2023-08-30T03:09:19;12.70;99.90
11934;DHT22;6026;48.784;9.198;2023-08-30T03:11:44;12.60;99.90
11934;DHT22;6026;48.784;9.198;2023-08-30T03:14:10;12.60;99.90
11934;DHT22;6026;48.784;9.198;2023-08-30T03:16:36;12.60;99.90
11934;DHT22;6026;48.784;9.198;2023-08-30T03:19:02;12.60;99.90
11934;DHT22;6026;48.784;9.198;2023-08-30T03:21:28;12.50;99.90
11934;DHT22;6026;48.784;9.198;2023-08-30T03:23:53;12.50;99.90
11934;DHT22;6026;48.784;9.198;2023-08-30T03:26:19;12.50;99.90
11934;DHT22;6026;48.784;9.198;2023-08-30T03:28:44;12.60;99.90
11934;DHT22;6026;48.784;9.198;2023-08-30T03:31:14;12.60;99.90
11934;DHT22;6026;48.784;9.198;2023-08-30T03:33:40;12.60;99.90
11934;DHT22;6026;48.784;9.198;2023-08-30T03:36:13;12.50;99.90
11934;DHT22;6026;48.784;9.198;2023-08-30T03:38:39;12.60;99.90
11934;DHT22;6026;48.784;9.198;2023-08-30T03:41:05;12.60;99.90
11934;DHT22;6026;48.784;9.198;2023-08-30T03:43:32;12.60;99.90
11934;DHT22;6026;48.784;9.198;2023-08-30T03:45:59;12.60;99.90
11934;DHT22;6026;48.784;9.198;2023-08-30T03:48:25;12.60;99.90
11934;DHT22;6026;48.784;9.198;2023-08-30T03:50:51;12.60;99.90
11934;DHT22;6026;48.784;9.198;2023-08-30T03:53:16;12.60;99.90
11934;DHT22;6026;48.784;9.198;2023-08-30T03:55:42;12.60;99.90
11934;DHT22;6026;48.784;9.198;2023-08-30T03:58:07;12.70;99.90
11934;DHT22;6026;48.784;9.198;2023-08-30T04:00:38;12.70;99.90
11934;DHT22;6026;48.784;9.198;2023-08-30T04:03:08;12.70;99.90
11934;DHT22;6026;48.784;9.198;2023-08-30T04:05:37;12.70;99.90
11934;DHT22;6026;48.784;9.198;2023-08-30T04:08:04;12.70;99.90
11934;DHT22;6026;48.784;9.198;2023-08-30T04:10:37;12.70;99.90
11934;DHT22;6026;48.784;9.198;2023-08-30T04:13:04;12.80;99.90
11934;DHT22;6026;48.784;9.198;2023-08-30T04:15:37;12.80;99.90
11934;DHT22;6026;48.784;9.198;2023-08-30T04:18:04;12.80;99.90
11934;DHT22;6026;48.784;9.198;2023-08-30T04:20:30;12.70;99.90
11934;DHT22;6026;48.784;9.198;2023-08-30T04:22:55;12.80;99.90
11934;DHT22;6026;48.784;9.198;2023-08-30T04:25:22;12.80;99.90
11934;DHT22;6026;48.784;9.198;2023-08-30T04:27:48;12.70;99.90
11934;DHT22;6026;48.784;9.198;2023-08-30T04:30:14;12.70;99.90
11934;DHT22;6026;48.784;9.198;2023-08-30T04:32:40;12.70;99.90
11934;DHT22;6026;48.784;9.198;2023-08-30T04:35:06;12.70;99.90
11934;DHT22;6026;48.784;9.198;2023-08-30T04:37:32;12.80;99.90
11934;DHT22;6026;48.784;9.198;2023-08-30T04:39:57;12.70;99.90
11934;DHT22;6026;48.784;9.198;2023-08-30T04:42:23;12.80;99.90
11934;DHT22;6026;48.784;9.198;2023-08-30T04:44:50;12.80;99.90
11934;DHT22;6026;48.784;9.198;2023-08-30T04:47:15;12.80;99.90
11934;DHT22;6026;48.784;9.198;2023-08-30T04:49:41;12.80;99.90
11934;DHT22;6026;48.784;9.198;2023-08-30T04:52:06;12.70;99.90
11934;DHT22;6026;48.784;9.198;2023-08-30T04:54:32;12.70;99.90
11934;DHT22;6026;48.784;9.198;2023-08-30T04:56:57;12.80;99.90
11934;DHT22;6026;48.784;9.198;2023-08-30T04:59:23;12.70;99.90
11934;DHT22;6026;48.784;9.198;2023-08-30T05:01:49;12.80;99.90
11934;DHT22;6026;48.784;9.198;2023-08-30T05:04:17;12.80;99.90
11934;DHT22;6026;48.784;9.198;2023-08-30T05:06:42;12.80;99.90
11934;DHT22;6026;48.784;9.198;2023-08-30T05:09:08;12.80;99.90
11934;DHT22;6026;48.784;9.198;2023-08-30T05:11:34;12.80;99.90
11934;DHT22;6026;48.784;9.198;2023-08-30T05:13:59;12.90;99.90
11934;DHT22;6026;48.784;9.198;2023-08-30T05:16:25;12.90;99.90
11934;DHT22;6026;48.784;9.198;2023-08-30T05:18:50;12.90;99.90
11934;DHT22;6026;48.784;9.198;2023-08-30T05:21:16;12.90;99.90
11934;DHT22;6026;48.784;9.198;2023-08-30T05:23:41;12.90;99.90
11934;DHT22;6026;48.784;9.198;2023-08-30T05:26:11;12.90;99.90
11934;DHT22;6026;48.784;9.198;2023-08-30T05:28:42;13.00;99.90
11934;DHT22;6026;48.784;9.198;2023-08-30T05:31:07;13.00;99.90
11934;DHT22;6026;48.784;9.198;2023-08-30T05:33:33;13.00;99.90
11934;DHT22;6026;48.784;9.198;2023-08-30T05:35:58;13.10;99.90
11934;DHT22;6026;48.784;9.198;2023-08-30T05:38:24;13.10;99.90
11934;DHT22;6026;48.784;9.198;2023-08-30T05:40:49;13.10;99.90
11934;DHT22;6026;48.784;9.198;2023-08-30T05:43:15;13.20;99.90
11934;DHT22;6026;48.784;9.198;2023-08-30T05:45:41;13.30;99.90
11934;DHT22;6026;48.784;9.198;2023-08-30T05:48:07;13.30;99.90
11934;DHT22;6026;48.784;9.198;2023-08-30T05:50:32;13.30;99.90
11934;DHT22;6026;48.784;9.198;2023-08-30T05:52:58;13.40;99.90
11934;DHT22;6026;48.784;9.198;2023-08-30T05:55:23;13.40;99.90
11934;DHT22;6026;48.784;9.198;2023-08-30T05:57:49;13.40;99.90
11934;DHT22;6026;48.784;9.198;2023-08-30T06:00:15;13.30;99.90
11934;DHT22;6026;48.784;9.198;2023-08-30T06:02:40;13.30;99.90
11934;DHT22;6026;48.784;9.198;2023-08-30T06:05:06;13.40;99.90
11934;DHT22;6026;48.784;9.198;2023-08-30T06:07:32;13.40;99.90
11934;DHT22;6026;48.784;9.198;2023-08-30T06:09:58;13.50;99.90
11934;DHT22;6026;48.784;9.198;2023-08-30T06:12:23;13.50;99.90
11934;DHT22;6026;48.784;9.198;2023-08-30T06:14:51;13.50;99.90
11934;DHT22;6026;48.784;9.198;2023-08-30T06:17:18;13.50;99.90
11934;DHT22;6026;48.784;9.198;2023-08-30T06:19:47;13.60;99.90
11934;DHT22;6026;48.784;9.198;2023-08-30T06:22:13;13.60;99.90
11934;DHT22;6026;48.784;9.198;2023-08-30T06:24:39;13.70;99.90
11934;DHT22;6026;48.784;9.198;2023-08-30T06:27:05;13.60;99.90
11934;DHT22;6026;48.784;9.198;2023-08-30T06:29:30;13.70;99.90
11934;DHT22;6026;48.784;9.198;2023-08-30T06:31:56;13.80;99.90
11934;DHT22;6026;48.784;9.198;2023-08-30T06:34:22;13.90;99.90
11934;DHT22;6026;48.784;9.198;2023-08-30T06:36:47;13.90;99.90
11934;DHT22;6026;48.784;9.198;2023-08-30T06:39:13;13.80;99.90
11934;DHT22;6026;48.784;9.198;2023-08-30T06:41:39;13.90;99.90
11934;DHT22;6026;48.784;9.198;2023-08-30T06:44:05;14.00;99.90
11934;DHT22;6026;48.784;9.198;2023-08-30T06:46:30;14.00;99.90
11934;DHT22;6026;48.784;9.198;2023-08-30T06:48:56;14.10;99.90
11934;DHT22;6026;48.784;9.198;2023-08-30T06:51:21;14.10;99.90
11934;DHT22;6026;48.784;9.198;2023-08-30T06:53:47;14.10;99.90
11934;DHT22;6026;48.784;9.198;2023-08-30T06:56:13;14.20;99.90
11934;DHT22;6026;48.784;9.198;2023-08-30T06:58:38;14.10;99.90
11934;DHT22;6026;48.784;9.198;2023-08-30T07:01:04;14.10;99.90
11934;DHT22;6026;48.784;9.198;2023-08-30T07:03:30;14.20;99.90
11934;DHT22;6026;48.784;9.198;2023-08-30T07:05:55;14.20;99.90
11934;DHT22;6026;48.784;9.198;2023-08-30T07:08:21;14.20;99.90
11934;DHT22;6026;48.784;9.198;2023-08-30T07:10:46;14.30;99.90
11934;DHT22;6026;48.784;9.198;2023-08-30T07:13:12;14.20;99.90
11934;DHT22;6026;48.784;9.198;2023-08-30T07:15:41;14.30;99.90
11934;DHT22;6026;48.784;9.198;2023-08-30T07:18:08;14.30;99.90
11934;DHT22;6026;48.784;9.198;2023-08-30T07:20:34;14.40;99.90
11934;DHT22;6026;48.784;9.198;2023-08-30T07:23:01;14.30;99.90
11934;DHT22;6026;48.784;9.198;2023-08-30T07:25:26;14.40;99.90
11934;DHT22;6026;48.784;9.198;2023-08-30T07:27:52;14.40;99.90
11934;DHT22;6026;48.784;9.198;2023-08-30T07:30:17;14.50;99.90
11934;DHT22;6026;48.784;9.198;2023-08-30T07:32:46;14.50;99.90
11934;DHT22;6026;48.784;9.198;2023-08-30T07:35:13;14.50;99.90
11934;DHT22;6026;48.784;9.198;2023-08-30T07:37:38;14.60;99.90
11934;DHT22;6026;48.784;9.198;2023-08-30T07:40:04;14.70;99.90
11934;DHT22;6026;48.784;9.198;2023-08-30T07:42:30;14.70;99.90
11934;DHT22;6026;48.784;9.198;2023-08-30T07:44:55;14.60;99.90
11934;DHT22;6026;48.784;9.198;2023-08-30T07:47:21;14.70;99.90
11934;DHT22;6026;48.784;9.198;2023-08-30T07:49:46;14.80;99.90
11934;DHT22;6026;48.784;9.198;2023-08-30T07:52:12;14.80;99.90
11934;DHT22;6026;48.784;9.198;2023-08-30T07:54:39;14.70;99.90
11934;DHT22;6026;48.784;9.198;2023-08-30T07:57:05;14.80;99.90
11934;DHT22;6026;48.784;9.198;2023-08-30T07:59:36;14.80;99.90
11934;DHT22;6026;48.784;9.198;2023-08-30T08:02:03;14.80;99.90
11934;DHT22;6026;48.784;9.198;2023-08-30T08:04:29;14.80;99.90
11934;DHT22;6026;48.784;9.198;2023-08-30T08:06:54;14.80;99.90
11934;DHT22;6026;48.784;9.198;2023-08-30T08:09:20;14.90;99.90
11934;DHT22;6026;48.784;9.198;2023-08-30T08:11:48;14.90;99.90
11934;DHT22;6026;48.784;9.198;2023-08-30T08:14:14;15.10;99.90
11934;DHT22;6026;48.784;9.198;2023-08-30T08:16:39;15.10;99.90
11934;DHT22;6026;48.784;9.198;2023-08-30T08:19:05;15.10;99.90
11934;DHT22;6026;48.784;9.198;2023-08-30T08:21:33;15.20;99.90
11934;DHT22;6026;48.784;9.198;2023-08-30T08:23:58;15.20;99.90
11934;DHT22;6026;48.784;9.198;2023-08-30T08:26:24;15.30;99.90
11934;DHT22;6026;48.784;9.198;2023-08-30T08:28:50;15.40;99.90
11934;DHT22;6026;48.784;9.198;2023-08-30T08:31:16;15.40;99.90
11934;DHT22;6026;48.784;9.198;2023-08-30T08:33:41;15.60;99.90
11934;DHT22;6026;48.784;9.198;2023-08-30T08:36:07;15.70;99.90
11934;DHT22;6026;48.784;9.198;2023-08-30T08:38:33;15.70;99.90
11934;DHT22;6026;48.784;9.198;2023-08-30T08:41:06;15.80;99.90
11934;DHT22;6026;48.784;9.198;2023-08-30T08:43:33;16.10;99.90
11934;DHT22;6026;48.784;9.198;2023-08-30T08:46:03;16.10;99.90
11934;DHT22;6026;48.784;9.198;2023-08-30T08:48:36;16.30;99.90
11934;DHT22;6026;48.784;9.198;2023-08-30T08:51:05;16.50;99.90
11934;DHT22;6026;48.784;9.198;2023-08-30T08:53:30;16.80;99.90
11934;DHT22;6026;48.784;9.198;2023-08-30T08:55:58;17.00;99.90
11934;DHT22;6026;48.784;9.198;2023-08-30T08:58:24;17.20;99.90
11934;DHT22;6026;48.784;9.198;2023-08-30T09:00:51;17.40;99.90
11934;DHT22;6026;48.784;9.198;2023-08-30T09:03:18;17.60;99.90
11934;DHT22;6026;48.784;9.198;2023-08-30T09:05:45;17.60;99.90
11934;DHT22;6026;48.784;9.198;2023-08-30T09:08:12;18.60;99.90
11934;DHT22;6026;48.784;9.198;2023-08-30T09:10:38;18.70;99.90
11934;DHT22;6026;48.784;9.198;2023-08-30T09:13:05;18.80;99.90
11934;DHT22;6026;48.784;9.198;2023-08-30T09:15:34;19.20;99.90
11934;DHT22;6026;48.784;9.198;2023-08-30T09:18:02;19.40;99.90
11934;DHT22;6026;48.784;9.198;2023-08-30T09:20:28;19.70;99.90
11934;DHT22;6026;48.784;9.198;2023-08-30T09:22:53;19.70;99.90
11934;DHT22;6026;48.784;9.198;2023-08-30T09:25:23;19.60;99.90
11934;DHT22;6026;48.784;9.198;2023-08-30T09:28:01;20.20;99.90
11934;DHT22;6026;48.784;9.198;2023-08-30T09:30:26;20.80;99.90
11934;DHT22;6026;48.784;9.198;2023-08-30T09:32:52;21.80;99.90
11934;DHT22;6026;48.784;9.198;2023-08-30T09:35:18;22.20;99.90
11934;DHT22;6026;48.784;9.198;2023-08-30T09:37:47;22.80;99.90
11934;DHT22;6026;48.784;9.198;2023-08-30T09:40:18;24.10;99.90
11934;DHT22;6026;48.784;9.198;2023-08-30T09:42:44;24.10;99.90
11934;DHT22;6026;48.784;9.198;2023-08-30T09:45:22;23.70;99.90
11934;DHT22;6026;48.784;9.198;2023-08-30T09:47:48;23.80;99.90
11934;DHT22;6026;48.784;9.198;2023-08-30T09:50:17;23.80;99.90
11934;DHT22;6026;48.784;9.198;2023-08-30T09:52:45;23.50;99.90
11934;DHT22;6026;48.784;9.198;2023-08-30T09:55:11;23.30;99.90
11934;DHT22;6026;48.784;9.198;2023-08-30T09:57:37;23.90;99.90
11934;DHT22;6026;48.784;9.198;2023-08-30T10:00:04;23.90;99.90
11934;DHT22;6026;48.784;9.198;2023-08-30T10:02:31;24.10;99.90
11934;DHT22;6026;48.784;9.198;2023-08-30T10:04:57;24.10;99.90
11934;DHT22;6026;48.784;9.198;2023-08-30T10:07:23;24.40;99.90
11934;DHT22;6026;48.784;9.198;2023-08-30T10:09:51;24.50;99.90
11934;DHT22;6026;48.784;9.198;2023-08-30T10:12:20;25.10;99.90
11934;DHT22;6026;48.784;9.198;2023-08-30T10:14:47;25.60;99.90
11934;DHT22;6026;48.784;9.198;2023-08-30T10:17:14;25.00;99.90
11934;DHT22;6026;48.784;9.198;2023-08-30T10:19:43;24.30;99.90
11934;DHT22;6026;48.784;9.198;2023-08-30T10:22:10;25.00;99.90
11934;DHT22;6026;48.784;9.198;2023-08-30T10:24:48;25.90;99.90
11934;DHT22;6026;48.784;9.198;2023-08-30T10:27:16;25.60;99.90
11934;DHT22;6026;48.784;9.198;2023-08-30T10:29:43;25.70;99.90
11934;DHT22;6026;48.784;9.198;2023-08-30T10:32:09;24.90;99.90
11934;DHT22;6026;48.784;9.198;2023-08-30T10:34:36;25.30;99.90
11934;DHT22;6026;48.784;9.198;2023-08-30T10:37:09;25.50;99.90
11934;DHT22;6026;48.784;9.198;2023-08-30T10:39:37;25.60;99.90
11934;DHT22;6026;48.784;9.198;2023-08-30T10:42:23;25.40;99.90
11934;DHT22;6026;48.784;9.198;2023-08-30T10:44:57;25.10;99.90
11934;DHT22;6026;48.784;9.198;2023-08-30T10:47:31;24.90;99.90
11934;DHT22;6026;48.784;9.198;2023-08-30T10:49:57;24.90;99.90
11934;DHT22;6026;48.784;9.198;2023-08-30T10:52:25;24.80;99.90
11934;DHT22;6026;48.784;9.198;2023-08-30T10:54:51;24.50;99.90
11934;DHT22;6026;48.784;9.198;2023-08-30T10:57:23;24.10;99.90
11934;DHT22;6026;48.784;9.198;2023-08-30T11:00:08;24.50;99.90
11934;DHT22;6026;48.784;9.198;2023-08-30T11:02:36;24.60;99.90
11934;DHT22;6026;48.784;9.198;2023-08-30T11:05:01;25.00;99.90
11934;DHT22;6026;48.784;9.198;2023-08-30T11:07:28;25.30;99.90
11934;DHT22;6026;48.784;9.198;2023-08-30T11:09:54;25.00;99.90
11934;DHT22;6026;48.784;9.198;2023-08-30T11:12:20;25.10;99.90
11934;DHT22;6026;48.784;9.198;2023-08-30T11:14:49;24.90;99.90
11934;DHT22;6026;48.784;9.198;2023-08-30T11:17:18;24.50;99.90
11934;DHT22;6026;48.784;9.198;2023-08-30T11:19:45;24.90;99.90
11934;DHT22;6026;48.784;9.198;2023-08-30T11:22:12;25.20;99.90
11934;DHT22;6026;48.784;9.198;2023-08-30T11:24:38;25.50;99.90
11934;DHT22;6026;48.784;9.198;2023-08-30T11:27:04;25.20;99.90
11934;DHT22;6026;48.784;9.198;2023-08-30T11:29:29;25.30;99.90
11934;DHT22;6026;48.784;9.198;2023-08-30T11:31:55;25.70;99.90
11934;DHT22;6026;48.784;9.198;2023-08-30T11:34:21;25.60;99.90
11934;DHT22;6026;48.784;9.198;2023-08-30T11:36:52;25.20;99.90
11934;DHT22;6026;48.784;9.198;2023-08-30T11:39:19;25.00;99.90
11934;DHT22;6026;48.784;9.198;2023-08-30T11:41:45;24.80;99.90
11934;DHT22;6026;48.784;9.198;2023-08-30T11:44:11;24.70;99.90
11934;DHT22;6026;48.784;9.198;2023-08-30T11:46:37;24.40;99.90
11934;DHT22;6026;48.784;9.198;2023-08-30T11:49:03;23.70;99.90
11934;DHT22;6026;48.784;9.198;2023-08-30T11:51:29;23.40;99.90
11934;DHT22;6026;48.784;9.198;2023-08-30T11:53:55;23.00;99.90
11934;DHT22;6026;48.784;9.198;2023-08-30T11:56:22;22.60;99.90
11934;DHT22;6026;48.784;9.198;2023-08-30T11:58:48;22.10;99.90
11934;DHT22;6026;48.784;9.198;2023-08-30T12:01:14;21.80;99.90
11934;DHT22;6026;48.784;9.198;2023-08-30T12:03:39;21.30;99.90
11934;DHT22;6026;48.784;9.198;2023-08-30T12:06:11;21.00;99.90
11934;DHT22;6026;48.784;9.198;2023-08-30T12:08:39;20.10;99.90
11934;DHT22;6026;48.784;9.198;2023-08-30T12:11:05;19.60;99.90
11934;DHT22;6026;48.784;9.198;2023-08-30T12:13:34;19.10;99.90
11934;DHT22;6026;48.784;9.198;2023-08-30T12:16:01;18.50;99.90
11934;DHT22;6026;48.784;9.198;2023-08-30T12:18:32;17.90;99.90
11934;DHT22;6026;48.784;9.198;2023-08-30T12:21:02;17.70;99.90
11934;DHT22;6026;48.784;9.198;2023-08-30T12:23:30;17.30;99.90
11934;DHT22;6026;48.784;9.198;2023-08-30T12:26:02;17.10;99.90
11934;DHT22;6026;48.784;9.198;2023-08-30T12:28:41;16.90;99.90
11934;DHT22;6026;48.784;9.198;2023-08-30T12:31:10;16.70;99.90
11934;DHT22;6026;48.784;9.198;2023-08-30T12:33:37;16.70;99.90
11934;DHT22;6026;48.784;9.198;2023-08-30T12:36:03;16.60;99.90
11934;DHT22;6026;48.784;9.198;2023-08-30T12:38:29;16.60;99.90
11934;DHT22;6026;48.784;9.198;2023-08-30T12:40:56;16.70;99.90
11934;DHT22;6026;48.784;9.198;2023-08-30T12:43:22;16.70;99.90
11934;DHT22;6026;48.784;9.198;2023-08-30T12:45:49;16.70;99.90
11934;DHT22;6026;48.784;9.198;2023-08-30T12:48:16;16.90;99.90
11934;DHT22;6026;48.784;9.198;2023-08-30T12:50:44;16.80;99.90
11934;DHT22;6026;48.784;9.198;2023-08-30T12:53:09;16.80;99.90
11934;DHT22;6026;48.784;9.198;2023-08-30T12:55:35;16.90;99.90
11934;DHT22;6026;48.784;9.198;2023-08-30T12:58:01;17.00;99.90
11934;DHT22;6026;48.784;9.198;2023-08-30T13:00:28;17.10;99.90
11934;DHT22;6026;48.784;9.198;2023-08-30T13:02:54;17.20;99.90
11934;DHT22;6026;48.784;9.198;2023-08-30T13:05:20;17.20;99.90
11934;DHT22;6026;48.784;9.198;2023-08-30T13:07:46;17.30;99.90
11934;DHT22;6026;48.784;9.198;2023-08-30T13:10:12;17.40;99.90
11934;DHT22;6026;48.784;9.198;2023-08-30T13:12:37;17.60;99.90
11934;DHT22;6026;48.784;9.198;2023-08-30T13:15:04;17.70;99.90
11934;DHT22;6026;48.784;9.198;2023-08-30T13:17:30;17.70;99.90
11934;DHT22;6026;48.784;9.198;2023-08-30T13:19:55;17.50;99.90
11934;DHT22;6026;48.784;9.198;2023-08-30T13:22:23;17.30;99.90
11934;DHT22;6026;48.784;9.198;2023-08-30T13:24:48;17.10;99.90
11934;DHT22;6026;48.784;9.198;2023-08-30T13:27:14;17.40;99.90
11934;DHT22;6026;48.784;9.198;2023-08-30T13:29:40;17.60;99.90
11934;DHT22;6026;48.784;9.198;2023-08-30T13:32:05;17.80;99.90
11934;DHT22;6026;48.784;9.198;2023-08-30T13:34:31;18.10;99.90
11934;DHT22;6026;48.784;9.198;2023-08-30T13:36:56;18.30;99.90
11934;DHT22;6026;48.784;9.198;2023-08-30T13:39:22;18.50;99.90
11934;DHT22;6026;48.784;9.198;2023-08-30T13:41:48;18.60;99.90
11934;DHT22;6026;48.784;9.198;2023-08-30T13:44:14;18.80;99.90
11934;DHT22;6026;48.784;9.198;2023-08-30T13:46:39;18.90;99.90
11934;DHT22;6026;48.784;9.198;2023-08-30T13:49:05;19.10;99.90
11934;DHT22;6026;48.784;9.198;2023-08-30T13:51:31;19.10;99.90
11934;DHT22;6026;48.784;9.198;2023-08-30T13:53:56;19.20;99.90
11934;DHT22;6026;48.784;9.198;2023-08-30T13:56:23;19.30;99.90
11934;DHT22;6026;48.784;9.198;2023-08-30T13:58:49;19.50;99.90
11934;DHT22;6026;48.784;9.198;2023-08-30T14:01:15;19.60;99.90
11934;DHT22;6026;48.784;9.198;2023-08-30T14:03:40;19.60;99.90
11934;DHT22;6026;48.784;9.198;2023-08-30T14:06:06;19.80;99.90
11934;DHT22;6026;48.784;9.198;2023-08-30T14:08:32;19.80;99.90
11934;DHT22;6026;48.784;9.198;2023-08-30T14:10:57;20.00;99.90
11934;DHT22;6026;48.784;9.198;2023-08-30T14:13:23;20.00;99.90
11934;DHT22;6026;48.784;9.198;2023-08-30T14:15:49;20.10;99.90
11934;DHT22;6026;48.784;9.198;2023-08-30T14:18:15;20.20;99.90
11934;DHT22;6026;48.784;9.198;2023-08-30T14:20:44;20.20;99.90
11934;DHT22;6026;48.784;9.198;2023-08-30T14:23:09;20.30;99.90
11934;DHT22;6026;48.784;9.198;2023-08-30T14:25:35;20.50;99.90
11934;DHT22;6026;48.784;9.198;2023-08-30T14:28:01;20.30;99.90
11934;DHT22;6026;48.784;9.198;2023-08-30T14:30:27;20.40;99.90
11934;DHT22;6026;48.784;9.198;2023-08-30T14:32:53;20.40;99.90
11934;DHT22;6026;48.784;9.198;2023-08-30T14:35:19;20.30;99.90
11934;DHT22;6026;48.784;9.198;2023-08-30T14:37:50;20.20;99.90
11934;DHT22;6026;48.784;9.198;2023-08-30T14:40:15;19.80;99.90
11934;DHT22;6026;48.784;9.198;2023-08-30T14:42:41;19.70;99.90
11934;DHT22;6026;48.784;9.198;2023-08-30T14:45:07;19.80;99.90
11934;DHT22;6026;48.784;9.198;2023-08-30T14:47:34;19.90;99.90
11934;DHT22;6026;48.784;9.198;2023-08-30T14:50:00;19.80;99.90
11934;DHT22;6026;48.784;9.198;2023-08-30T14:52:29;19.70;99.90
11934;DHT22;6026;48.784;9.198;2023-08-30T14:54:55;19.50;99.90
11934;DHT22;6026;48.784;9.198;2023-08-30T14:57:22;19.30;99.90
11934;DHT22;6026;48.784;9.198;2023-08-30T14:59:50;19.20;99.90
11934;DHT22;6026;48.784;9.198;2023-08-30T15:02:15;19.10;99.90
11934;DHT22;6026;48.784;9.198;2023-08-30T15:04:41;18.90;99.90
11934;DHT22;6026;48.784;9.198;2023-08-30T15:07:06;18.80;99.90
11934;DHT22;6026;48.784;9.198;2023-08-30T15:09:32;18.70;99.90
11934;DHT22;6026;48.784;9.198;2023-08-30T15:11:58;18.60;99.90
11934;DHT22;6026;48.784;9.198;2023-08-30T15:14:24;18.50;99.90
11934;DHT22;6026;48.784;9.198;2023-08-30T15:16:50;18.40;99.90
11934;DHT22;6026;48.784;9.198;2023-08-30T15:19:15;18.50;99.90
11934;DHT22;6026;48.784;9.198;2023-08-30T15:21:41;18.50;99.90
11934;DHT22;6026;48.784;9.198;2023-08-30T15:24:08;18.50;99.90
11934;DHT22;6026;48.784;9.198;2023-08-30T15:26:34;18.60;99.90
11934;DHT22;6026;48.784;9.198;2023-08-30T15:28:59;18.70;99.90
11934;DHT22;6026;48.784;9.198;2023-08-30T15:31:25;18.80;99.90
11934;DHT22;6026;48.784;9.198;2023-08-30T15:33:50;18.70;99.90
11934;DHT22;6026;48.784;9.198;2023-08-30T15:36:17;18.80;99.90
11934;DHT22;6026;48.784;9.198;2023-08-30T15:38:42;18.80;99.90
11934;DHT22;6026;48.784;9.198;2023-08-30T15:41:11;19.00;99.90